KOLE/OLE METAR and TAF weather

Enter ICAO airport designator
Station Type Date Time Source
KOLE METAR 2020/04/05 12:35 UTC NOAA

KOLE 051235Z AUTO 00000KT 10SM SCT040 SCT048 SCT080 07/06 A3003 RMK AO2


Station Type Date Time Source
KOLE Decoded METAR 2020/04/05 12:35 UTC NOAA

Olean Municipal, NY, United States (KOLE) 42-14N 078-22W
Apr 05, 2020 - 08:35 AM EDT / 2020.04.05 1235 UTC
Wind: Calm:0
Visibility: 10 mile(s):0
Sky conditions: partly cloudy
Temperature: 44 F (7 C)
Dew Point: 42 F (6 C)
Relative Humidity: 93%
Pressure (altimeter): 30.03 in. Hg (1016 hPa)
ob: KOLE 051235Z AUTO 00000KT 10SM SCT040 SCT048 SCT080 07/06 A3003 RMK AO2
cycle: 12

Station Type Date Time Source
KOLE TAF UTC NOAA

Error!

Example: see airport list